createdAt,value
2023-05-01T00:03:20.874Z,7.60
2023-05-01T00:08:22.599Z,7.50
2023-05-01T00:13:25.112Z,7.40
2023-05-01T00:18:26.990Z,7.20
2023-05-01T00:23:28.843Z,7.10
2023-05-01T00:28:30.505Z,7.00
2023-05-01T00:33:32.207Z,7.00
2023-05-01T00:38:33.849Z,7.00
2023-05-01T00:43:36.243Z,6.90
2023-05-01T00:48:38.367Z,6.90
2023-05-01T00:53:43.982Z,6.80
2023-05-01T00:58:49.577Z,6.90
2023-05-01T01:03:54.698Z,6.90
2023-05-01T01:09:23.449Z,6.90
2023-05-01T01:14:33.620Z,6.80
2023-05-01T01:20:12.687Z,6.80
2023-05-01T01:25:54.529Z,6.70
2023-05-01T01:31:17.944Z,6.60
2023-05-01T01:36:39.932Z,6.50
2023-05-01T01:41:47.540Z,6.50
2023-05-01T01:46:53.018Z,6.40
2023-05-01T01:51:56.681Z,6.40
2023-05-01T01:57:01.988Z,6.40
2023-05-01T02:02:04.927Z,6.30
2023-05-01T02:07:07.572Z,6.30
2023-05-01T02:12:11.074Z,6.20
2023-05-01T02:17:14.715Z,6.10
2023-05-01T02:22:18.352Z,6.20
2023-05-01T02:27:46.273Z,6.10
2023-05-01T02:32:48.140Z,6.10
2023-05-01T02:37:49.972Z,6.10
2023-05-01T02:42:53.067Z,6.00
2023-05-01T02:47:57.786Z,6.00
2023-05-01T02:53:01.149Z,5.90
2023-05-01T02:58:02.821Z,5.90
2023-05-01T03:03:04.542Z,5.90
2023-05-01T03:08:06.766Z,5.90
2023-05-01T03:13:08.779Z,5.90
2023-05-01T03:18:10.570Z,5.80
2023-05-01T03:23:12.311Z,5.80
2023-05-01T03:28:14.262Z,5.80
2023-05-01T03:33:16.212Z,5.70
2023-05-01T03:38:18.963Z,5.70
2023-05-01T03:43:20.651Z,5.80
2023-05-01T03:48:22.355Z,5.80
2023-05-01T03:53:24.458Z,5.80
2023-05-01T03:58:26.115Z,5.90
2023-05-01T04:03:28.616Z,6.00
2023-05-01T04:08:30.555Z,6.10
2023-05-01T04:13:32.207Z,6.10
2023-05-01T04:18:33.921Z,6.30
2023-05-01T04:23:35.604Z,6.40
2023-05-01T04:28:38.898Z,6.40
2023-05-01T04:33:40.549Z,6.40
2023-05-01T04:38:42.448Z,6.50
2023-05-01T04:43:44.764Z,6.60
2023-05-01T04:48:46.420Z,6.70
2023-05-01T04:53:48.254Z,6.90
2023-05-01T04:58:50.072Z,6.90
2023-05-01T05:03:52.216Z,7.00
2023-05-01T05:08:54.124Z,7.10
2023-05-01T05:13:55.887Z,7.30
2023-05-01T05:18:57.926Z,7.40
2023-05-01T05:23:59.629Z,7.60
2023-05-01T05:29:01.361Z,7.90
2023-05-01T05:34:03.028Z,8.10
2023-05-01T05:39:05.036Z,8.20
2023-05-01T05:44:06.973Z,8.20
2023-05-01T05:49:08.681Z,8.10
2023-05-01T05:54:10.504Z,8.20
2023-05-01T05:59:12.407Z,8.20
2023-05-01T06:04:15.037Z,8.30
2023-05-01T06:09:18.972Z,8.30
2023-05-01T06:14:20.656Z,8.50
2023-05-01T06:19:22.366Z,8.50
2023-05-01T06:24:24.042Z,8.60
2023-05-01T06:29:25.753Z,8.70
2023-05-01T06:34:27.432Z,8.80
2023-05-01T06:39:29.095Z,9.00
2023-05-01T06:44:32.730Z,9.20
2023-05-01T06:49:34.687Z,9.20
2023-05-01T06:54:36.517Z,9.40
2023-05-01T06:59:38.167Z,9.50
2023-05-01T07:04:39.980Z,9.70
2023-05-01T07:09:41.670Z,9.80
2023-05-01T07:14:43.411Z,10.10
2023-05-01T07:19:45.080Z,10.20
2023-05-01T07:24:46.767Z,10.40
2023-05-01T07:29:48.479Z,10.60
2023-05-01T07:34:50.535Z,10.90
2023-05-01T07:39:52.284Z,11.20
2023-05-01T07:44:53.970Z,11.50
2023-05-01T07:49:56.376Z,11.60
2023-05-01T07:54:58.271Z,11.70
2023-05-01T07:59:59.947Z,11.80
2023-05-01T08:05:02.824Z,11.90
2023-05-01T08:10:05.053Z,12.00
2023-05-01T08:15:07.782Z,12.10
2023-05-01T08:20:10.241Z,12.10
2023-05-01T08:25:12.019Z,12.20
2023-05-01T08:30:13.828Z,12.30
2023-05-01T08:35:15.529Z,12.40
2023-05-01T08:40:17.278Z,12.80
2023-05-01T08:45:22.221Z,12.90
2023-05-01T08:50:24.713Z,12.80
2023-05-01T08:55:27.838Z,13.10
2023-05-01T09:00:31.171Z,13.30
2023-05-01T09:05:33.729Z,13.60
2023-05-01T09:10:42.332Z,13.80
2023-05-01T09:15:44.548Z,13.80
2023-05-01T09:20:47.201Z,13.90
2023-05-01T09:25:50.856Z,14.20
2023-05-01T09:30:53.695Z,14.40
2023-05-01T09:35:57.049Z,14.50
2023-05-01T09:41:04.448Z,14.90
2023-05-01T09:46:07.308Z,15.20
2023-05-01T09:51:29.026Z,15.60
2023-05-01T09:56:45.898Z,15.80
2023-05-01T10:01:50.097Z,16.20
2023-05-01T10:06:52.351Z,16.90
2023-05-01T10:11:59.065Z,17.00
2023-05-01T10:17:01.127Z,17.10
2023-05-01T10:22:03.299Z,17.10
2023-05-01T10:27:06.728Z,17.10
2023-05-01T10:32:09.411Z,17.30
2023-05-01T10:37:21.756Z,17.20
2023-05-01T10:42:23.546Z,17.00
2023-05-01T10:47:25.421Z,16.90
2023-05-01T10:52:27.252Z,16.70
2023-05-01T10:57:46.034Z,17.20
2023-05-01T11:02:47.801Z,16.90
2023-05-01T11:08:28.370Z,17.20
2023-05-01T11:14:01.069Z,18.10
2023-05-01T11:19:02.892Z,18.40
2023-05-01T11:24:09.237Z,17.80
2023-05-01T11:29:11.917Z,17.50
2023-05-01T11:34:13.733Z,17.70
2023-05-01T11:39:17.355Z,17.40
2023-05-01T11:44:19.213Z,17.80
2023-05-01T11:49:29.633Z,18.00
2023-05-01T11:54:31.535Z,17.90
2023-05-01T11:59:33.320Z,17.90
2023-05-01T12:04:35.173Z,17.70
2023-05-01T12:09:37.523Z,17.70
2023-05-01T12:14:40.248Z,18.00
2023-05-01T12:19:48.908Z,18.00
2023-05-01T12:24:52.645Z,18.20
2023-05-01T12:29:55.292Z,18.50
2023-05-01T12:34:57.503Z,18.80
2023-05-01T12:39:59.583Z,19.20
2023-05-01T12:45:01.693Z,19.50
2023-05-01T12:50:04.255Z,19.70
2023-05-01T12:55:08.079Z,20.20
2023-05-01T13:00:10.669Z,20.30
2023-05-01T13:05:12.490Z,20.40
2023-05-01T13:10:18.870Z,21.10
2023-05-01T13:15:23.666Z,20.70
2023-05-01T13:20:29.324Z,20.50
2023-05-01T13:25:31.152Z,21.10
2023-05-01T13:30:34.195Z,21.20
2023-05-01T13:35:36.239Z,22.00
2023-05-01T13:40:39.690Z,22.30
2023-05-01T13:45:41.380Z,22.00
2023-05-01T13:50:43.160Z,22.10
2023-05-01T13:55:44.891Z,22.20
2023-05-01T14:00:47.185Z,22.20
2023-05-01T14:05:48.917Z,22.00
2023-05-01T14:10:50.570Z,22.30
2023-05-01T14:15:52.599Z,22.70
2023-05-01T14:20:54.284Z,22.10
2023-05-01T14:25:56.139Z,22.10
2023-05-01T14:30:58.116Z,21.80
2023-05-01T14:35:59.875Z,21.80
2023-05-01T14:41:01.616Z,22.10
2023-05-01T14:46:03.737Z,21.90
2023-05-01T14:51:09.804Z,22.10
2023-05-01T14:56:12.486Z,22.70
2023-05-01T15:01:14.868Z,22.90
2023-05-01T15:06:16.924Z,23.00
2023-05-01T15:11:20.772Z,23.10
2023-05-01T15:16:22.534Z,23.10
2023-05-01T15:21:24.285Z,21.70
2023-05-01T15:26:25.995Z,21.70
2023-05-01T15:31:27.791Z,21.60
2023-05-01T15:36:29.550Z,20.90
2023-05-01T15:41:31.278Z,20.60
2023-05-01T15:46:33.125Z,19.90
2023-05-01T15:51:35.782Z,19.80
2023-05-01T15:56:38.036Z,19.70
2023-05-01T16:01:39.966Z,19.90
2023-05-01T16:06:42.243Z,19.60
2023-05-01T16:11:44.094Z,19.20
2023-05-01T16:16:46.137Z,19.40
2023-05-01T16:21:48.071Z,19.60
2023-05-01T16:26:50.042Z,19.30
2023-05-01T16:31:51.988Z,19.10
2023-05-01T16:36:54.737Z,18.80
2023-05-01T16:41:56.528Z,18.80
2023-05-01T16:46:58.821Z,18.50
2023-05-01T16:52:04.014Z,18.40
2023-05-01T16:57:06.626Z,18.40
2023-05-01T17:02:08.488Z,18.20
2023-05-01T17:07:10.319Z,18.10
2023-05-01T17:12:11.987Z,18.00
2023-05-01T17:17:13.690Z,18.00
2023-05-01T17:22:15.437Z,17.90
2023-05-01T17:27:17.107Z,17.80
2023-05-01T17:32:29.568Z,17.80
2023-05-01T17:37:39.910Z,17.70
2023-05-01T17:42:41.899Z,17.60
2023-05-01T17:47:44.972Z,17.50
2023-05-01T17:52:46.852Z,17.50
2023-05-01T17:57:48.607Z,17.40
2023-05-01T18:02:50.315Z,17.40
2023-05-01T18:07:52.053Z,17.30
2023-05-01T18:12:54.104Z,17.20
2023-05-01T18:17:56.621Z,17.10
2023-05-01T18:22:58.323Z,17.10
2023-05-01T18:28:00.160Z,17.10
2023-05-01T18:33:01.958Z,17.10
2023-05-01T18:38:03.781Z,17.00
2023-05-01T18:43:05.598Z,16.90
2023-05-01T18:48:08.309Z,16.80
2023-05-01T18:53:10.405Z,16.70
2023-05-01T18:58:12.089Z,16.60
2023-05-01T19:03:13.934Z,16.60
2023-05-01T19:08:15.678Z,16.50
2023-05-01T19:13:17.533Z,16.40
2023-05-01T19:18:21.609Z,16.40
2023-05-01T19:23:23.450Z,16.30
2023-05-01T19:28:25.274Z,16.20
2023-05-01T19:33:32.736Z,16.10
2023-05-01T19:38:34.600Z,16.00
2023-05-01T19:43:36.695Z,15.90
2023-05-01T19:48:38.405Z,15.80
2023-05-01T19:53:40.220Z,15.80
2023-05-01T19:58:42.239Z,15.70
2023-05-01T20:03:44.041Z,15.70
2023-05-01T20:08:47.123Z,15.60
2023-05-01T20:13:48.818Z,15.70
2023-05-01T20:18:50.532Z,15.50
2023-05-01T20:23:52.446Z,15.50
2023-05-01T20:28:54.450Z,15.50
2023-05-01T20:33:56.196Z,15.50
2023-05-01T20:38:58.025Z,15.40
2023-05-01T20:44:00.969Z,15.30
2023-05-01T20:49:02.713Z,15.30
2023-05-01T20:54:04.555Z,15.10
2023-05-01T20:59:07.422Z,15.00
2023-05-01T21:04:09.314Z,15.00
2023-05-01T21:09:14.790Z,15.00
2023-05-01T21:14:16.553Z,14.90
2023-05-01T21:19:18.392Z,14.90
2023-05-01T21:24:25.236Z,14.80
2023-05-01T21:29:28.010Z,14.70
2023-05-01T21:34:30.016Z,14.70
2023-05-01T21:39:31.754Z,14.60
2023-05-01T21:44:33.427Z,14.60
2023-05-01T21:49:35.228Z,14.50
2023-05-01T21:54:38.363Z,14.50
2023-05-01T21:59:40.667Z,14.50
2023-05-01T22:04:42.404Z,14.40
2023-05-01T22:09:44.134Z,14.40
2023-05-01T22:14:47.710Z,14.30
2023-05-01T22:19:51.379Z,14.20
2023-05-01T22:24:53.096Z,14.20
2023-05-01T22:29:54.831Z,14.20
2023-05-01T22:34:56.678Z,14.10
2023-05-01T22:39:58.545Z,14.00
2023-05-01T22:45:00.421Z,14.00
2023-05-01T22:50:02.470Z,14.00
2023-05-01T22:55:04.803Z,14.00
2023-05-01T23:00:07.986Z,14.00
2023-05-01T23:05:10.361Z,13.90
2023-05-01T23:10:12.623Z,13.90
2023-05-01T23:15:21.975Z,13.80
2023-05-01T23:20:24.484Z,13.80
2023-05-01T23:25:26.808Z,13.70
2023-05-01T23:30:28.504Z,13.70
2023-05-01T23:35:30.429Z,13.70
2023-05-01T23:40:32.163Z,13.70
2023-05-01T23:45:34.819Z,13.60
2023-05-01T23:50:36.804Z,13.50
2023-05-01T23:55:38.497Z,13.40
